Latest Weather Observations for Cape Willoughby

IDS60801

Issued at 3:31 pm CST Thursday 30 July 2015 (issued every 30 minutes, with the page automatically refreshed every 10 minutes)

About weather observations | Map of weather stations | Latest weather observations for SA | Other Formats
Station Details ID: 022803 Name: CAPE WILLOUGHBY Lat: -35.84 Lon: 138.13 Height: 55.0 m
Data from the previous 72 hours. | See also: Recent months at Cape Willoughby
Date/Time
CST
Temp
°C
App
Temp
°C
Dew
Point
Rel
Hum
%
Delta-T
°C
Wind Press
QNH
hPa
Press
MSL
hPa
Rain
since 9 am
mm
Dir
 
Spd
km/h
Gust
km/h
Spd
kts
Gust
kts
30/03:30pm 14.8 8.9 10.4 75 2.3 WSW 32 67 17 36 1016.0 1016.1 0.0
30/03:29pm 15.6 10.2 10.8 73 2.6 WSW 30 57 16 31 1016.2 1016.3 0.0
30/03:00pm 16.2 10.9 11.2 72 2.7 WSW 30 37 16 20 1015.8 1015.9 0.0
30/02:48pm 16.1 11.1 11.1 72 2.7 WSW 28 41 15 22 1015.7 1015.8 0.0
30/02:30pm 15.9 13.8 12.5 80 1.9 W 15 24 8 13 1015.7 1015.8 0.0
30/02:00pm 14.8 12.1 12.8 88 1.1 NW 19 32 10 17 1015.4 1015.5 0.0
30/01:30pm 13.8 10.0 12.4 91 0.8 NW 24 32 13 17 1015.5 1015.6 0.0
30/01:00pm 12.8 6.9 10.3 85 1.3 NW 32 43 17 23 1015.6 1015.7 0.0
30/12:30pm 13.3 4.9 8.8 74 2.3 NW 43 57 23 31 1015.3 1015.4 0.0
30/12:12pm 13.6 5.8 8.4 71 2.6 NNW 39 57 21 31 1015.5 1015.6 0.0
30/12:00pm 13.8 5.3 8.6 71 2.6 NNW 43 59 23 32 1015.5 1015.6 0.0
30/11:30am 13.8 4.4 8.6 71 2.6 NW 48 61 26 33 1015.5 1015.6 0.0
30/11:00am 13.3 3.6 7.3 67 2.9 NW 48 65 26 35 1015.7 1015.8 0.0
30/10:58am 13.2 3.8 7.0 66 3.0 NW 46 65 25 35 1015.7 1015.8 0.0
30/10:30am 12.9 1.5 6.5 65 3.1 NNW 56 70 30 38 1015.6 1015.7 0.0
30/10:00am 13.2 2.3 7.2 67 2.9 NNW 54 70 29 38 1015.3 1015.4 0.0
30/09:30am 12.2 0.1 6.3 67 2.8 NNW 59 78 32 42 1014.3 1014.3 0.0
30/09:20am 12.1 0.5 6.6 69 2.6 NNW 57 76 31 41 1015.0 1015.0 0.0
30/09:00am 11.8 -0.5 7.1 73 2.3 NNW 61 76 33 41 1014.8 1014.8 0.4
30/08:30am 11.6 -0.3 6.9 73 2.2 NNW 59 69 32 37 1015.2 1015.3 0.4
30/08:00am 11.1 -0.9 6.6 74 2.1 NNW 59 72 32 39 1015.2 1015.3 0.4
30/07:30am 11.2 -0.4 6.7 74 2.1 NNW 57 70 31 38 1015.8 1015.9 0.0
30/07:00am 11.8 0.4 6.7 71 2.4 NNW 56 69 30 37 1015.6 1015.7 0.0
30/06:30am 11.7 0.2 7.0 73 2.3 N 57 67 31 36 1015.9 1016.0 0.0
30/06:00am 11.5 -0.8 7.0 74 2.2 N 61 70 33 38 1016.0 1016.1 0.0
30/05:30am 11.3 -0.3 6.6 73 2.2 N 57 67 31 36 1015.6 1015.7 0.0
30/05:00am 11.5 -1.5 7.0 74 2.2 N 65 76 35 41 1015.1 1015.2 0.0
30/04:30am 11.5 -2.1 6.4 71 2.4 N 67 78 36 42 1015.5 1015.6 0.0
30/04:00am 11.5 -0.8 7.0 74 2.2 NNW 61 72 33 39 1016.6 1016.7 0.0
30/03:32am 11.6 -0.5 5.9 68 2.7 NNW 59 83 32 45 1017.3 1017.4 0.0
30/03:30am 11.6 -0.5 5.9 68 2.7 NNW 59 78 32 42 1017.4 1017.5 0.0
30/03:14am 11.7 -0.3 6.4 70 2.5 NNW 59 80 32 43 1017.5 1017.6 0.0
30/03:00am 11.6 -1.5 6.7 72 2.3 NNW 65 76 35 41 1017.3 1017.4 0.0
30/02:30am 11.8 -1.2 7.1 73 2.3 NNW 65 78 35 42 1017.7 1017.8 0.0
30/02:00am 11.9 -1.1 7.0 72 2.4 NNW 65 82 35 44 1018.2 1018.3 0.0
30/01:30am 11.9 -1.2 6.6 70 2.5 NNW 65 74 35 40 1018.6 1018.7 0.0
30/01:00am 11.9 -1.1 7.0 72 2.4 NNW 65 76 35 41 1018.9 1019.0 0.0
30/12:30am 12.0 -1.1 6.7 70 2.5 NNW 65 82 35 44 1019.0 1019.1 0.0
30/12:00am 12.0 -1.0 7.3 73 2.3 NNW 65 83 35 45 1019.0 1019.1 0.0
 
Date/Time
CST
Temp
°C
App
Temp
°C
Dew
Point
Rel
Hum
%
Delta-T
°C
Wind Press
QNH
hPa
Press
MSL
hPa
Rain
since 9 am
mm
Dir
 
Spd
km/h
Gust
km/h
Spd
kts
Gust
kts
29/11:30pm 12.0 -1.9 7.5 74 2.2 NNW 70 83 38 45 1019.4 1019.5 0.0
29/11:00pm 12.0 -1.4 7.3 73 2.3 NNW 67 80 36 43 1019.8 1019.9 0.0
29/10:30pm 12.0 -0.1 7.7 75 2.1 NNW 61 72 33 39 1020.8 1020.8 0.0
29/10:00pm 11.9 -0.8 7.0 72 2.4 N 63 80 34 43 1021.0 1021.0 0.0
29/09:56pm 11.8 -0.5 6.9 72 2.3 NNW 61 80 33 43 1021.1 1021.1 0.0
29/09:30pm 11.8 -0.6 6.7 71 2.4 N 61 70 33 38 1021.3 1021.3 0.0
29/09:00pm 12.1 0.6 7.2 72 2.4 NNW 57 70 31 38 1021.6 1021.6 0.0
29/08:30pm 12.0 0.8 7.5 74 2.2 NNW 56 65 30 35 1022.2 1022.2 0.0
29/08:00pm 12.0 0.0 6.5 69 2.6 N 59 67 32 36 1022.3 1022.3 0.0
29/07:30pm 12.0 0.0 6.7 70 2.5 N 59 69 32 37 1022.4 1022.4 0.0
29/07:00pm 12.1 0.3 7.6 74 2.2 N 59 70 32 38 1022.3 1022.3 0.0
29/06:30pm 12.0 0.8 7.5 74 2.2 N 56 67 30 36 1022.4 1022.4 0.0
29/06:00pm 11.8 1.8 7.7 76 2.0 N 50 57 27 31 1022.5 1022.5 0.0
29/05:30pm 11.4 1.3 7.5 77 1.9 N 50 57 27 31 1022.9 1022.9 0.0
29/05:00pm 11.4 0.5 7.3 76 2.0 N 54 61 29 33 1022.3 1022.3 0.0
29/04:30pm 11.3 -0.5 7.4 77 1.9 N 59 69 32 37 1022.5 1022.5 0.0
29/04:00pm 11.7 0.3 7.6 76 2.0 NNW 57 65 31 35 1022.8 1022.8 0.0
29/03:30pm 11.6 0.1 7.1 74 2.1 NNW 57 65 31 35 1023.1 1023.1 0.0
29/03:00pm 11.7 0.9 7.6 76 2.0 NNW 54 63 29 34 1023.1 1023.1 0.0
29/02:30pm 11.7 0.2 7.2 74 2.2 NNW 57 67 31 36 1023.6 1023.6 0.0
29/02:00pm 12.0 1.5 7.5 74 2.2 NNW 52 61 28 33 1024.3 1024.3 0.0
29/01:30pm 11.6 1.1 7.3 75 2.1 NNW 52 59 28 32 1024.9 1024.9 0.0
29/01:00pm 11.7 1.7 7.8 77 1.9 NNW 50 59 27 32 1025.8 1025.8 0.0
29/12:30pm 11.3 2.0 7.6 78 1.8 NNW 46 54 25 29 1026.5 1026.5 0.0
29/12:00pm 11.5 2.6 7.8 78 1.8 NNW 44 54 24 29 1027.1 1027.1 0.0
29/11:30am 11.4 3.1 7.7 78 1.8 N 41 52 22 28 1027.9 1027.9 0.0
29/11:00am 11.3 4.3 8.3 82 1.5 N 35 44 19 24 1028.3 1028.3 0.0
29/10:30am 11.1 2.9 8.1 82 1.5 N 41 46 22 25 1029.1 1029.1 0.0
29/10:00am 11.0 2.7 7.9 81 1.5 N 41 46 22 25 1029.3 1029.3 0.0
29/09:30am 11.0 3.5 8.1 82 1.4 N 37 43 20 23 1029.5 1029.5 0.0
29/09:00am 10.9 3.4 7.8 81 1.5 N 37 46 20 25 1029.9 1029.9 0.0
29/08:30am 10.8 3.2 7.7 81 1.5 N 37 43 20 23 1029.7 1029.7 0.0
29/08:00am 10.7 2.6 7.2 79 1.7 N 39 44 21 24 1030.2 1030.3 0.0
29/07:30am 10.7 3.0 7.2 79 1.7 N 37 43 20 23 1029.8 1029.8 0.0
29/07:00am 10.6 3.3 7.3 80 1.6 N 35 43 19 23 1029.6 1029.6 0.0
29/06:30am 10.6 3.9 7.3 80 1.6 N 32 37 17 20 1029.5 1029.5 0.0
29/06:00am 10.6 3.9 7.3 80 1.6 N 32 37 17 20 1029.2 1029.2 0.0
29/05:30am 10.6 4.6 6.9 78 1.7 N 28 37 15 20 1029.8 1029.8 0.0
29/05:00am 10.5 4.4 6.6 77 1.8 NNE 28 33 15 18 1030.0 1030.0 0.0
29/04:30am 10.6 5.3 6.9 78 1.7 N 24 30 13 16 1029.7 1029.7 0.0
29/04:00am 10.4 4.7 6.5 77 1.8 N 26 30 14 16 1030.7 1030.8 0.0
29/03:30am 10.4 4.7 6.5 77 1.8 N 26 30 14 16 1030.4 1030.5 0.0
29/03:00am 10.6 4.1 6.6 76 1.9 N 30 35 16 19 1030.0 1030.0 0.0
29/02:30am 10.7 4.6 6.5 75 2.0 NNE 28 35 15 19 1030.5 1030.6 0.0
29/02:00am 10.7 4.6 6.5 75 2.0 NNE 28 32 15 17 1030.7 1030.8 0.0
29/01:30am 10.8 5.0 6.2 73 2.1 N 26 30 14 16 1031.0 1031.1 0.0
29/01:00am 10.7 5.2 6.1 73 2.1 NNE 24 28 13 15 1031.4 1031.5 0.0
29/12:30am 10.6 5.8 5.8 72 2.2 N 20 22 11 12 1032.0 1032.1 0.0
29/12:00am 10.3 6.3 6.5 77 1.8 N 17 19 9 10 1032.2 1032.3 0.0
 
Date/Time
CST
Temp
°C
App
Temp
°C
Dew
Point
Rel
Hum
%
Delta-T
°C
Wind Press
QNH
hPa
Press
MSL
hPa
Rain
since 9 am
mm
Dir
 
Spd
km/h
Gust
km/h
Spd
kts
Gust
kts
28/11:30pm 9.9 5.5 7.2 83 1.3 N 20 24 11 13 1032.0 1032.1 0.0
28/11:00pm 9.3 6.2 7.1 86 1.0 N 13 15 7 8 1032.6 1032.7 0.0
28/10:30pm 9.5 5.9 6.9 84 1.2 NW 15 19 8 10 1033.5 1033.6 0.0
28/10:00pm 9.7 5.8 7.0 83 1.3 NNW 17 20 9 11 1033.3 1033.4 0.0
28/09:30pm 10.1 5.9 7.3 83 1.3 NNW 19 24 10 13 1033.5 1033.6 0.0
28/09:00pm 10.3 4.8 7.7 84 1.2 NNW 26 30 14 16 1033.8 1033.9 0.0
28/08:30pm 10.3 4.5 7.9 85 1.1 N 28 33 15 18 1033.8 1033.9 0.0
28/08:00pm 10.3 4.5 7.9 85 1.2 N 28 32 15 17 1034.0 1034.1 0.0
28/07:30pm 10.2 4.0 8.0 86 1.1 N 30 35 16 19 1033.9 1034.0 0.0
28/07:00pm 10.3 4.5 8.1 86 1.1 N 28 32 15 17 1033.9 1034.0 0.0
28/06:30pm 10.4 5.0 8.2 86 1.1 NNW 26 30 14 16 1034.1 1034.2 0.0
28/06:00pm 10.5 4.8 8.4 87 1.0 NNW 28 33 15 18 1033.9 1034.0 0.0
28/05:30pm 10.7 5.0 8.5 86 1.1 NNW 28 33 15 18 1034.0 1034.1 0.0
28/05:00pm 10.9 5.1 8.0 82 1.4 NNW 28 35 15 19 1034.0 1034.1 0.0
28/04:30pm 11.3 6.7 8.2 81 1.5 NNW 22 26 12 14 1034.3 1034.4 0.0
28/04:00pm 12.0 7.8 8.3 78 1.8 NNW 20 32 11 17 1034.2 1034.3 0.0
28/03:30pm 11.5 6.9 8.0 79 1.7 NNW 22 30 12 16 1034.3 1034.4 0.0
28/03:00pm 12.4 7.2 8.7 78 1.8 NNW 26 33 14 18 1034.4 1034.5 0.0
28/02:30pm 12.7 7.5 9.0 78 1.8 N 26 32 14 17 1034.2 1034.3 0.0
28/02:00pm 12.9 7.5 9.4 79 1.8 N 28 32 15 17 1034.4 1034.5 0.0
28/01:30pm 13.0 8.0 9.4 79 1.8 NNW 26 32 14 17 1034.8 1034.9 0.0
28/01:00pm 12.4 6.1 8.9 79 1.8 NNW 32 35 17 19 1035.2 1035.3 0.0
28/12:30pm 12.6 7.1 9.2 80 1.7 NNW 28 33 15 18 1035.8 1035.9 0.0
28/12:00pm 13.0 8.4 9.8 81 1.6 NNW 24 30 13 16 1036.2 1036.3 0.0
28/11:30am 12.9 8.0 9.9 82 1.5 N 26 32 14 17 1036.5 1036.6 0.0
28/11:00am 12.3 8.5 9.1 81 1.6 NNW 19 26 10 14 1037.3 1037.4 0.0
28/10:30am 11.4 7.4 8.4 82 1.5 NNW 19 22 10 12 1037.3 1037.4 0.0
28/10:00am 11.4 7.9 8.8 84 1.3 NNW 17 22 9 12 1037.2 1037.3 0.0
28/09:30am 11.2 7.7 8.8 85 1.2 NNW 17 22 9 12 1037.0 1037.1 0.0
28/09:00am 10.6 7.4 8.5 87 1.0 NW 15 19 8 10 1037.0 1037.1 1.0
28/08:30am 9.7 5.7 8.1 90 0.8 NW 19 20 10 11 1036.5 1036.6 1.0
28/08:00am 8.5 4.2 7.1 91 0.7 NW 19 20 10 11 1036.4 1036.5 1.0
28/07:30am 7.9 2.9 6.4 90 0.7 NW 22 24 12 13 1036.5 1036.6 1.0
28/07:00am 7.9 2.9 6.4 90 0.7 WNW 22 24 12 13 1036.4 1036.5 1.0
28/06:30am 8.1 3.1 6.6 90 0.7 WNW 22 22 12 12 1036.4 1036.5 1.0
28/06:00am 8.2 3.3 6.8 91 0.6 WNW 22 24 12 13 1036.2 1036.3 1.0
28/05:30am 8.0 3.0 6.6 91 0.6 WNW 22 24 12 13 1035.8 1035.9 1.0
28/05:00am 8.3 3.4 6.9 91 0.7 WNW 22 24 12 13 1035.9 1036.0 1.0
28/04:30am 8.2 3.3 6.8 91 0.6 WNW 22 24 12 13 1035.4 1035.5 1.0
28/04:00am 8.2 3.3 6.8 91 0.6 WNW 22 24 12 13 1035.4 1035.5 1.0
28/03:30am 7.9 3.0 6.7 92 0.5 WNW 22 24 12 13 1035.4 1035.5 1.0
28/03:00am 8.0 2.7 6.8 92 0.5 WNW 24 28 13 15 1035.4 1035.5 1.0
28/02:30am 8.2 3.3 6.8 91 0.6 WNW 22 24 12 13 1035.5 1035.6 1.0
28/02:00am 8.0 3.1 6.8 92 0.6 WNW 22 26 12 14 1035.6 1035.7 1.0
28/01:30am 8.0 3.0 6.6 91 0.6 WNW 22 24 12 13 1035.6 1035.7 1.0
28/01:00am 8.0 3.5 6.8 92 0.6 WNW 20 22 11 12 1035.4 1035.5 1.0
28/12:30am 7.7 3.1 6.5 92 0.5 WNW 20 22 11 12 1035.3 1035.4 1.0
28/12:00am 7.8 3.2 6.6 92 0.5 WNW 20 22 11 12 1035.4 1035.5 1.0
 
Date/Time
CST
Temp
°C
App
Temp
°C
Dew
Point
Rel
Hum
%
Delta-T
°C
Wind Press
QNH
hPa
Press
MSL
hPa
Rain
since 9 am
mm
Dir
 
Spd
km/h
Gust
km/h
Spd
kts
Gust
kts
27/11:30pm 7.9 4.2 6.5 91 0.6 WNW 15 17 8 9 1035.4 1035.5 0.8
27/11:00pm 8.2 4.2 6.7 90 0.7 W 17 20 9 11 1035.5 1035.6 0.8
27/10:30pm 8.3 4.3 6.8 90 0.7 WNW 17 22 9 12 1035.3 1035.4 0.8
27/10:00pm 8.7 4.8 7.2 90 0.7 W 17 22 9 12 1035.5 1035.6 0.8
27/09:30pm 8.9 4.7 7.5 91 0.7 W 19 22 10 12 1035.6 1035.7 0.8
27/09:00pm 9.0 5.6 7.6 91 0.7 W 15 20 8 11 1035.6 1035.7 0.6
27/08:30pm 8.6 5.1 7.1 90 0.7 WNW 15 17 8 9 1035.4 1035.5 0.6
27/08:00pm 9.3 5.6 7.9 91 0.7 W 17 20 9 11 1035.4 1035.5 0.6
27/07:30pm 9.1 6.1 7.5 90 0.8 WNW 13 17 7 9 1035.2 1035.3 0.6
27/07:00pm 9.1 6.1 7.7 91 0.7 WNW 13 15 7 8 1035.1 1035.2 0.4
27/06:30pm 9.3 5.9 7.7 90 0.8 WNW 15 17 8 9 1034.9 1035.0 0.4
27/06:00pm 9.7 6.0 8.0 89 0.8 NW 17 20 9 11 1034.7 1034.8 0.4
27/05:30pm 10.0 7.4 7.8 86 1.0 NW 11 13 6 7 1034.5 1034.6 0.4
27/05:00pm 10.3 8.4 7.5 83 1.3 NW 7 9 4 5 1034.4 1034.5 0.4
27/04:30pm 11.1 9.0 8.1 82 1.5 WNW 9 13 5 7 1034.2 1034.3 0.4
27/04:00pm 10.7 7.7 7.8 82 1.4 SW 13 22 7 12 1034.2 1034.3 0.4

Other Formats:

Comma delimited format used in spreadsheet applications
http://www.bom.gov.au/fwo/IDS60801/IDS60801.94822.axf

JavaScript Object Notation format (JSON) in row-major order
http://www.bom.gov.au/fwo/IDS60801/IDS60801.94822.json